createdAt,value
2022-08-29T00:01:10.394Z,23.92
2022-08-29T00:03:37.507Z,32.60
2022-08-29T00:06:04.845Z,28.27
2022-08-29T00:08:31.910Z,26.80
2022-08-29T00:10:58.874Z,25.60
2022-08-29T00:13:26.046Z,23.55
2022-08-29T00:15:53.094Z,28.77
2022-08-29T00:18:21.151Z,25.05
2022-08-29T00:20:48.689Z,39.10
2022-08-29T00:23:16.137Z,36.67
2022-08-29T00:25:43.198Z,27.50
2022-08-29T00:28:10.335Z,31.73
2022-08-29T00:30:38.171Z,25.40
2022-08-29T00:33:05.230Z,34.58
2022-08-29T00:35:37.861Z,27.92
2022-08-29T00:38:08.334Z,27.98
2022-08-29T00:40:58.121Z,22.88
2022-08-29T00:43:36.276Z,24.48
2022-08-29T00:46:06.212Z,48.78
2022-08-29T00:48:36.482Z,23.85
2022-08-29T00:51:07.906Z,39.95
2022-08-29T00:53:39.824Z,36.45
2022-08-29T00:56:08.695Z,28.60
2022-08-29T00:58:46.702Z,40.25
2022-08-29T01:01:14.384Z,32.47
2022-08-29T01:03:43.075Z,25.40
2022-08-29T01:06:11.637Z,22.48
2022-08-29T01:08:38.561Z,21.95
2022-08-29T01:11:25.039Z,16.95
2022-08-29T01:13:55.092Z,32.80
2022-08-29T01:16:24.383Z,21.48
2022-08-29T01:18:58.288Z,23.25
2022-08-29T01:21:57.309Z,27.08
2022-08-29T01:24:30.262Z,24.33
2022-08-29T01:26:57.499Z,28.23
2022-08-29T01:29:24.663Z,19.80
2022-08-29T01:31:57.137Z,26.30
2022-08-29T01:34:26.475Z,29.67
2022-08-29T01:36:57.528Z,23.05
2022-08-29T01:39:27.692Z,29.48
2022-08-29T01:41:57.124Z,34.53
2022-08-29T01:44:26.407Z,16.90
2022-08-29T01:47:02.206Z,25.00
2022-08-29T01:49:31.664Z,29.23
2022-08-29T01:51:58.558Z,34.42
2022-08-29T01:54:25.508Z,32.58
2022-08-29T01:56:53.827Z,18.52
2022-08-29T01:59:25.549Z,31.35
2022-08-29T02:01:58.520Z,26.67
2022-08-29T02:04:25.617Z,31.42
2022-08-29T02:06:52.795Z,27.25
2022-08-29T02:09:19.878Z,38.25
2022-08-29T02:11:48.463Z,35.38
2022-08-29T02:14:19.247Z,43.55
2022-08-29T02:16:47.939Z,32.90
2022-08-29T02:19:16.181Z,31.80
2022-08-29T02:21:44.533Z,32.92
2022-08-29T02:24:25.086Z,35.15
2022-08-29T02:26:55.407Z,37.33
2022-08-29T02:29:23.258Z,30.85
2022-08-29T02:31:50.257Z,28.55
2022-08-29T02:34:18.166Z,32.08
2022-08-29T02:36:45.085Z,41.67
2022-08-29T02:39:16.138Z,25.27
2022-08-29T02:41:44.441Z,37.92
2022-08-29T02:44:11.936Z,19.95
2022-08-29T02:46:38.957Z,35.92
2022-08-29T02:49:06.042Z,28.98
2022-08-29T02:51:33.931Z,32.47
2022-08-29T02:54:01.976Z,34.80
2022-08-29T02:56:30.070Z,32.47
2022-08-29T02:58:57.830Z,20.38
2022-08-29T03:01:26.382Z,36.85
2022-08-29T03:03:53.913Z,28.52
2022-08-29T03:06:21.211Z,28.40
2022-08-29T03:08:48.152Z,26.38
2022-08-29T03:11:17.434Z,45.38
2022-08-29T03:13:45.377Z,42.80
2022-08-29T03:16:12.991Z,32.15
2022-08-29T03:18:40.080Z,38.90
2022-08-29T03:21:16.696Z,30.27
2022-08-29T03:23:43.883Z,31.15
2022-08-29T03:26:11.020Z,36.45
2022-08-29T03:28:37.940Z,33.45
2022-08-29T03:31:05.251Z,37.70
2022-08-29T03:33:32.244Z,29.40
2022-08-29T03:35:59.223Z,27.33
2022-08-29T03:38:26.189Z,36.05
2022-08-29T03:40:53.594Z,34.33
2022-08-29T03:43:25.133Z,50.15
2022-08-29T03:45:52.952Z,28.33
2022-08-29T03:48:19.887Z,36.38
2022-08-29T03:50:46.942Z,37.40
2022-08-29T03:53:13.879Z,40.13
2022-08-29T03:55:41.574Z,36.97
2022-08-29T03:58:08.669Z,49.78
2022-08-29T04:00:35.818Z,29.15
2022-08-29T04:03:02.909Z,34.97
2022-08-29T04:05:30.133Z,32.22
2022-08-29T04:07:59.320Z,33.20
2022-08-29T04:10:32.494Z,42.10
2022-08-29T04:13:00.752Z,24.80
2022-08-29T04:15:29.216Z,36.30
2022-08-29T04:17:58.551Z,24.55
2022-08-29T04:20:28.515Z,34.80
2022-08-29T04:22:57.118Z,46.58
2022-08-29T04:25:26.175Z,40.05
2022-08-29T04:27:54.606Z,30.15
2022-08-29T04:30:24.309Z,39.67
2022-08-29T04:32:51.885Z,27.80
2022-08-29T04:35:18.900Z,30.08
2022-08-29T04:37:45.918Z,25.95
2022-08-29T04:40:16.035Z,32.72
2022-08-29T04:42:44.228Z,43.45
2022-08-29T04:45:13.701Z,39.75
2022-08-29T04:47:42.161Z,34.13
2022-08-29T04:50:12.935Z,31.42
2022-08-29T04:52:40.364Z,34.03
2022-08-29T04:55:09.002Z,23.05
2022-08-29T04:57:38.306Z,32.33
2022-08-29T05:00:11.914Z,33.10
2022-08-29T05:02:40.210Z,42.83
2022-08-29T05:05:08.841Z,34.97
2022-08-29T05:07:38.314Z,31.60
2022-08-29T05:10:23.735Z,47.88
2022-08-29T05:12:50.748Z,44.83
2022-08-29T05:15:18.738Z,37.05
2022-08-29T05:17:45.729Z,43.92
2022-08-29T05:20:13.120Z,41.70
2022-08-29T05:22:42.383Z,27.10
2022-08-29T05:25:17.386Z,31.75
2022-08-29T05:27:45.925Z,40.20
2022-08-29T05:30:12.947Z,42.67
2022-08-29T05:32:39.857Z,46.40
2022-08-29T05:35:07.444Z,43.72
2022-08-29T05:37:34.927Z,37.00
2022-08-29T05:40:02.270Z,48.33
2022-08-29T05:42:29.512Z,52.67
2022-08-29T05:44:56.919Z,41.20
2022-08-29T05:47:23.870Z,52.40
2022-08-29T05:49:50.943Z,40.65
2022-08-29T05:52:19.976Z,51.80
2022-08-29T05:54:47.016Z,50.83
2022-08-29T05:57:19.192Z,46.47
2022-08-29T05:59:52.455Z,36.28
2022-08-29T06:02:21.370Z,65.03
2022-08-29T06:04:48.706Z,52.20
2022-08-29T06:07:15.945Z,74.88
2022-08-29T06:09:44.731Z,71.28
2022-08-29T06:12:14.399Z,64.97
2022-08-29T06:14:42.048Z,69.13
2022-08-29T06:17:17.763Z,79.53
2022-08-29T06:19:44.737Z,74.57
2022-08-29T06:22:11.788Z,66.05
2022-08-29T06:24:39.875Z,60.30
2022-08-29T06:27:11.333Z,57.75
2022-08-29T06:29:43.570Z,82.65
2022-08-29T06:32:12.161Z,56.90
2022-08-29T06:34:39.165Z,81.78
2022-08-29T06:37:06.205Z,82.60
2022-08-29T06:39:33.174Z,61.60
2022-08-29T06:42:00.152Z,70.47
2022-08-29T06:44:30.653Z,69.22
2022-08-29T06:46:58.830Z,55.60
2022-08-29T06:49:26.157Z,53.92
2022-08-29T06:51:57.587Z,45.03
2022-08-29T06:54:28.200Z,53.88
2022-08-29T06:56:56.602Z,44.60
2022-08-29T06:59:24.056Z,45.28
2022-08-29T07:01:51.121Z,42.35
2022-08-29T07:04:20.559Z,48.20
2022-08-29T07:06:48.981Z,45.40
2022-08-29T07:09:15.964Z,52.63
2022-08-29T07:11:43.503Z,37.95
2022-08-29T07:14:11.245Z,39.67
2022-08-29T07:16:39.064Z,45.22
2022-08-29T07:19:07.646Z,46.00
2022-08-29T07:21:34.672Z,36.42
2022-08-29T07:24:02.293Z,50.50
2022-08-29T07:26:33.847Z,44.90
2022-08-29T07:29:03.976Z,55.20
2022-08-29T07:31:31.665Z,48.13
2022-08-29T07:34:02.848Z,45.35
2022-08-29T07:36:34.642Z,39.15
2022-08-29T07:39:04.438Z,48.10
2022-08-29T07:41:31.414Z,48.50
2022-08-29T07:43:58.361Z,40.53
2022-08-29T07:46:27.101Z,44.95
2022-08-29T07:48:54.451Z,34.35
2022-08-29T07:51:23.351Z,34.10
2022-08-29T07:53:51.442Z,27.83
2022-08-29T07:56:23.062Z,39.20
2022-08-29T07:58:52.155Z,32.03
2022-08-29T08:01:21.243Z,40.20
2022-08-29T08:03:50.869Z,29.67
2022-08-29T08:06:20.946Z,42.47
2022-08-29T08:08:48.669Z,33.53
2022-08-29T08:11:16.711Z,34.10
2022-08-29T08:13:44.600Z,27.27
2022-08-29T08:16:17.220Z,44.75
2022-08-29T08:18:45.238Z,26.40
2022-08-29T08:21:13.474Z,27.25
2022-08-29T08:23:41.490Z,28.60
2022-08-29T08:26:10.211Z,29.40
2022-08-29T08:28:37.910Z,44.85
2022-08-29T08:31:07.948Z,32.55
2022-08-29T08:33:38.931Z,27.83
2022-08-29T08:36:22.539Z,311.10
2022-08-29T08:38:50.878Z,228.55
2022-08-29T08:41:34.749Z,180.88
2022-08-29T08:44:29.045Z,182.40
2022-08-29T08:47:01.689Z,154.63
2022-08-29T08:50:10.037Z,153.30
2022-08-29T08:53:02.793Z,34.67
2022-08-29T08:55:46.961Z,34.47
2022-08-29T08:58:36.980Z,28.40
2022-08-29T09:01:18.975Z,30.85
2022-08-29T09:04:20.771Z,47.13
2022-08-29T09:07:06.254Z,96.03
2022-08-29T09:10:05.288Z,39.05
2022-08-29T09:12:35.278Z,38.47
2022-08-29T09:15:16.037Z,39.15
2022-08-29T09:17:57.985Z,26.67
2022-08-29T09:20:28.995Z,42.03
2022-08-29T09:23:01.277Z,38.00
2022-08-29T09:25:30.297Z,39.88
2022-08-29T09:27:58.563Z,43.97
2022-08-29T09:30:28.879Z,30.98
2022-08-29T09:33:04.865Z,27.08
2022-08-29T09:35:53.005Z,24.30
2022-08-29T09:38:28.297Z,40.03
2022-08-29T09:40:55.622Z,27.45
2022-08-29T09:43:44.369Z,26.80
2022-08-29T09:46:11.506Z,44.72
2022-08-29T09:49:00.193Z,31.90
2022-08-29T09:51:48.473Z,28.95
2022-08-29T09:54:28.504Z,32.67
2022-08-29T09:57:02.670Z,33.60
2022-08-29T09:59:35.925Z,36.30
2022-08-29T10:02:24.649Z,27.17
2022-08-29T10:05:02.809Z,34.00
2022-08-29T10:07:37.691Z,33.17
2022-08-29T10:10:20.069Z,32.90
2022-08-29T10:13:12.936Z,22.35
2022-08-29T10:15:51.373Z,31.17
2022-08-29T10:18:46.247Z,30.60
2022-08-29T10:24:24.402Z,34.83
2022-08-29T10:26:56.821Z,23.65
2022-08-29T10:30:07.623Z,24.40
2022-08-29T10:32:58.974Z,22.08
2022-08-29T10:35:35.374Z,15.70
2022-08-29T10:38:24.417Z,31.60
2022-08-29T10:41:02.030Z,29.02
2022-08-29T10:43:32.018Z,21.15
2022-08-29T10:46:10.893Z,19.30
2022-08-29T10:48:52.789Z,24.65
2022-08-29T10:51:51.827Z,30.38
2022-08-29T10:54:48.689Z,28.75
2022-08-29T10:57:44.384Z,24.95
2022-08-29T11:00:24.692Z,27.52
2022-08-29T11:03:10.323Z,37.67
2022-08-29T11:05:49.442Z,28.92
2022-08-29T11:08:35.138Z,28.92
2022-08-29T11:11:02.124Z,36.40
2022-08-29T11:13:36.051Z,39.80
2022-08-29T11:16:05.800Z,29.73
2022-08-29T11:18:40.918Z,31.65
2022-08-29T11:21:27.402Z,34.38
2022-08-29T11:23:56.406Z,29.92
2022-08-29T11:26:23.287Z,35.05
2022-08-29T11:29:28.318Z,35.88
2022-08-29T11:32:27.232Z,34.92
2022-08-29T11:35:15.066Z,39.22
2022-08-29T11:38:03.845Z,30.65
2022-08-29T11:43:43.224Z,27.95
2022-08-29T11:46:14.023Z,28.73
2022-08-29T11:48:46.231Z,45.90
2022-08-29T11:51:42.639Z,34.60
2022-08-29T11:54:25.188Z,21.35
2022-08-29T11:57:01.663Z,43.00
2022-08-29T11:59:50.077Z,45.15
2022-08-29T12:02:31.926Z,25.52
2022-08-29T12:05:28.111Z,30.55
2022-08-29T12:08:35.550Z,37.38
2022-08-29T12:11:00.643Z,33.17
2022-08-29T12:13:48.536Z,37.13
2022-08-29T12:16:27.121Z,21.00
2022-08-29T12:18:56.645Z,21.85
2022-08-29T12:21:39.533Z,27.58
2022-08-29T12:24:28.120Z,33.55
2022-08-29T12:26:55.351Z,26.55
2022-08-29T12:29:41.052Z,25.88
2022-08-29T12:32:23.841Z,28.52
2022-08-29T12:35:09.980Z,36.67
2022-08-29T12:37:46.415Z,38.00
2022-08-29T12:40:36.859Z,30.65
2022-08-29T12:43:25.552Z,25.23
2022-08-29T12:45:53.854Z,32.38
2022-08-29T12:48:25.967Z,20.73
2022-08-29T12:50:54.077Z,19.33
2022-08-29T12:53:33.416Z,24.15
2022-08-29T12:56:02.515Z,17.02
2022-08-29T12:58:56.772Z,41.25
2022-08-29T13:01:39.076Z,35.78
2022-08-29T13:04:15.515Z,20.35
2022-08-29T13:06:59.146Z,19.52
2022-08-29T13:09:27.396Z,21.45
2022-08-29T13:12:26.843Z,15.68
2022-08-29T13:15:00.674Z,21.42
2022-08-29T13:17:30.699Z,22.17
2022-08-29T13:20:38.858Z,17.38
2022-08-29T13:23:11.976Z,17.47
2022-08-29T13:26:07.050Z,21.40
2022-08-29T13:28:54.564Z,14.43
2022-08-29T13:31:30.501Z,16.05
2022-08-29T13:33:57.414Z,12.27
2022-08-29T13:36:27.159Z,15.18
2022-08-29T13:39:27.197Z,17.65
2022-08-29T13:42:03.006Z,20.75
2022-08-29T13:44:36.308Z,23.15
2022-08-29T13:47:14.038Z,24.15
2022-08-29T13:49:41.595Z,18.83
2022-08-29T13:52:10.572Z,13.48
2022-08-29T13:54:43.159Z,19.83
2022-08-29T13:57:17.575Z,20.75
2022-08-29T13:59:44.980Z,20.67
2022-08-29T14:02:14.921Z,17.40
2022-08-29T14:04:43.337Z,20.92
2022-08-29T14:07:17.476Z,12.45
2022-08-29T14:09:46.183Z,24.52
2022-08-29T14:12:14.900Z,22.52
2022-08-29T14:14:45.604Z,23.38
2022-08-29T14:17:18.498Z,17.30
2022-08-29T14:19:46.989Z,14.63
2022-08-29T14:22:14.653Z,11.23
2022-08-29T14:24:42.375Z,25.85
2022-08-29T14:27:09.691Z,17.15
2022-08-29T14:29:37.089Z,10.40
2022-08-29T14:32:04.912Z,20.85
2022-08-29T14:34:33.104Z,22.30
2022-08-29T14:37:01.235Z,32.33
2022-08-29T14:39:28.898Z,14.38
2022-08-29T14:41:56.019Z,12.85
2022-08-29T14:44:23.621Z,18.33
2022-08-29T14:46:51.380Z,13.77
2022-08-29T14:49:19.201Z,25.60
2022-08-29T14:51:46.839Z,25.70
2022-08-29T14:54:13.939Z,13.68
2022-08-29T14:56:48.607Z,12.93
2022-08-29T14:59:17.350Z,23.50
2022-08-29T15:01:48.675Z,16.23
2022-08-29T15:04:34.820Z,17.65
2022-08-29T15:07:13.793Z,11.77
2022-08-29T15:09:43.810Z,17.40
2022-08-29T15:12:16.971Z,17.70
2022-08-29T15:14:45.091Z,15.13
2022-08-29T15:17:13.166Z,24.27
2022-08-29T15:22:27.916Z,15.05
2022-08-29T15:24:54.902Z,19.73
2022-08-29T15:27:27.384Z,25.95
2022-08-29T15:29:55.491Z,15.68
2022-08-29T15:32:22.745Z,17.42
2022-08-29T15:34:49.867Z,13.07
2022-08-29T15:37:17.105Z,17.20
2022-08-29T15:39:44.099Z,18.42
2022-08-29T15:42:12.119Z,15.77
2022-08-29T15:44:44.665Z,26.35
2022-08-29T15:47:11.716Z,21.52
2022-08-29T15:49:39.674Z,22.13
2022-08-29T15:52:06.910Z,20.48
2022-08-29T15:54:33.872Z,15.68
2022-08-29T15:57:00.750Z,17.23
2022-08-29T15:59:54.192Z,25.48
2022-08-29T16:02:15.458Z,20.38
2022-08-29T16:04:47.864Z,23.13
2022-08-29T16:07:15.857Z,18.27
2022-08-29T16:09:43.498Z,18.13
2022-08-29T16:12:11.845Z,21.98
2022-08-29T16:14:58.458Z,27.35
2022-08-29T16:17:29.846Z,23.95
2022-08-29T16:19:58.198Z,20.88
2022-08-29T16:22:27.861Z,17.90
2022-08-29T16:24:55.330Z,26.60
2022-08-29T16:27:24.261Z,20.63
2022-08-29T16:29:52.996Z,16.95
2022-08-29T16:32:20.299Z,17.30
2022-08-29T16:34:47.343Z,16.83
2022-08-29T16:37:14.687Z,27.30
2022-08-29T16:39:41.677Z,30.00
2022-08-29T16:42:09.413Z,24.33
2022-08-29T16:44:36.509Z,20.70
2022-08-29T16:47:03.491Z,26.20
2022-08-29T16:49:30.925Z,35.53
2022-08-29T16:51:57.819Z,22.90
2022-08-29T16:54:24.710Z,18.70
2022-08-29T16:56:52.469Z,27.67
2022-08-29T16:59:19.408Z,36.28
2022-08-29T17:01:49.151Z,24.15
2022-08-29T17:04:22.091Z,20.10
2022-08-29T17:06:49.449Z,23.75
2022-08-29T17:09:18.388Z,22.17
2022-08-29T17:11:46.028Z,32.90
2022-08-29T17:14:14.126Z,39.35
2022-08-29T17:16:42.698Z,37.72
2022-08-29T17:19:09.821Z,28.75
2022-08-29T17:21:37.731Z,31.13
2022-08-29T17:24:08.913Z,28.08
2022-08-29T17:26:40.819Z,30.35
2022-08-29T17:29:10.189Z,27.33
2022-08-29T17:31:38.911Z,23.65
2022-08-29T17:34:07.566Z,24.05
2022-08-29T17:36:36.744Z,27.05
2022-08-29T17:39:05.758Z,26.75
2022-08-29T17:41:34.878Z,34.92
2022-08-29T17:44:02.315Z,33.10
2022-08-29T17:46:30.086Z,31.42
2022-08-29T17:48:57.174Z,30.85
2022-08-29T17:51:24.773Z,31.80
2022-08-29T17:53:52.428Z,29.75
2022-08-29T17:56:26.866Z,23.60
2022-08-29T17:58:53.931Z,26.95
2022-08-29T18:01:21.011Z,24.80
2022-08-29T18:03:47.971Z,15.77
2022-08-29T18:06:15.416Z,29.30
2022-08-29T18:08:47.754Z,35.13
2022-08-29T18:11:17.048Z,37.58
2022-08-29T18:13:44.486Z,32.03
2022-08-29T18:16:12.267Z,36.50
2022-08-29T18:18:39.595Z,28.45
2022-08-29T18:21:07.374Z,40.17
2022-08-29T18:23:35.441Z,32.28
2022-08-29T18:26:03.520Z,36.28
2022-08-29T18:28:30.966Z,33.78
2022-08-29T18:30:58.860Z,34.28
2022-08-29T18:33:38.774Z,27.60
2022-08-29T18:36:11.555Z,25.50
2022-08-29T18:38:38.497Z,33.40
2022-08-29T18:41:06.483Z,27.42
2022-08-29T18:43:34.879Z,38.10
2022-08-29T18:46:06.230Z,40.58
2022-08-29T18:48:33.329Z,39.67
2022-08-29T18:51:00.295Z,24.75
2022-08-29T18:53:31.633Z,26.67
2022-08-29T18:56:00.733Z,28.33
2022-08-29T18:58:30.654Z,29.98
2022-08-29T19:00:59.459Z,23.48
2022-08-29T19:03:26.688Z,29.75
2022-08-29T19:05:54.102Z,25.73
2022-08-29T19:08:24.729Z,20.92
2022-08-29T19:10:55.255Z,37.80
2022-08-29T19:13:25.120Z,20.58
2022-08-29T19:15:56.507Z,28.60
2022-08-29T19:18:23.713Z,27.85
2022-08-29T19:21:02.817Z,17.42
2022-08-29T19:23:31.288Z,20.40
2022-08-29T19:25:58.527Z,34.53
2022-08-29T19:28:27.632Z,37.00
2022-08-29T19:30:55.529Z,24.33
2022-08-29T19:33:22.943Z,29.85
2022-08-29T19:35:51.523Z,33.15
2022-08-29T19:38:20.401Z,27.85
2022-08-29T19:40:48.762Z,35.55
2022-08-29T19:43:16.130Z,30.50
2022-08-29T19:45:44.364Z,21.65
2022-08-29T19:48:15.103Z,29.48
2022-08-29T19:50:43.090Z,32.60
2022-08-29T19:53:21.505Z,16.52
2022-08-29T19:55:54.617Z,22.52
2022-08-29T19:58:31.068Z,24.60
2022-08-29T20:01:00.669Z,20.35
2022-08-29T20:03:28.966Z,19.63
2022-08-29T20:05:56.523Z,20.25
2022-08-29T20:08:23.491Z,30.52
2022-08-29T20:10:51.350Z,25.33
2022-08-29T20:13:19.783Z,31.42
2022-08-29T20:15:47.329Z,34.65
2022-08-29T20:18:14.943Z,23.45
2022-08-29T20:20:41.921Z,22.23
2022-08-29T20:23:09.214Z,23.77
2022-08-29T20:25:36.441Z,37.85
2022-08-29T20:28:05.999Z,17.00
2022-08-29T20:30:34.722Z,27.75
2022-08-29T20:33:02.157Z,28.38
2022-08-29T20:35:47.536Z,30.52
2022-08-29T20:38:15.043Z,33.83
2022-08-29T20:40:46.889Z,30.75
2022-08-29T20:43:14.945Z,24.10
2022-08-29T20:45:42.699Z,31.20
2022-08-29T20:48:10.554Z,34.42
2022-08-29T20:50:37.633Z,19.88
2022-08-29T20:53:05.909Z,32.72
2022-08-29T20:55:32.978Z,40.33
2022-08-29T20:58:00.180Z,29.00
2022-08-29T21:00:27.953Z,16.27
2022-08-29T21:03:13.553Z,17.23
2022-08-29T21:05:43.507Z,22.10
2022-08-29T21:08:14.994Z,24.38
2022-08-29T21:10:43.001Z,20.42
2022-08-29T21:13:10.763Z,26.50
2022-08-29T21:15:39.978Z,24.60
2022-08-29T21:18:07.983Z,18.40
2022-08-29T21:20:44.994Z,41.47
2022-08-29T21:23:23.251Z,31.40
2022-08-29T21:25:56.014Z,26.13
2022-08-29T21:28:24.918Z,22.88
2022-08-29T21:30:52.593Z,20.20
2022-08-29T21:33:20.792Z,20.90
2022-08-29T21:35:50.205Z,24.05
2022-08-29T21:38:17.832Z,34.03
2022-08-29T21:40:51.018Z,29.10
2022-08-29T21:43:19.848Z,31.27
2022-08-29T21:45:47.724Z,30.73
2022-08-29T21:48:14.751Z,33.65
2022-08-29T21:50:42.002Z,28.50
2022-08-29T21:53:14.971Z,19.75
2022-08-29T21:55:42.418Z,41.40
2022-08-29T21:58:09.499Z,27.42
2022-08-29T22:00:37.990Z,32.42
2022-08-29T22:03:07.103Z,35.53
2022-08-29T22:05:34.059Z,24.45
2022-08-29T22:08:03.297Z,34.08
2022-08-29T22:10:33.725Z,23.13
2022-08-29T22:13:01.932Z,25.05
2022-08-29T22:15:47.738Z,45.45
2022-08-29T22:18:15.312Z,44.63
2022-08-29T22:20:47.655Z,29.02
2022-08-29T22:23:20.547Z,25.10
2022-08-29T22:25:47.641Z,25.23
2022-08-29T22:28:14.621Z,25.00
2022-08-29T22:30:41.680Z,37.58
2022-08-29T22:33:09.038Z,37.85
2022-08-29T22:35:43.250Z,38.00
2022-08-29T22:38:10.475Z,43.97
2022-08-29T22:40:37.540Z,31.80
2022-08-29T22:43:04.715Z,17.95
2022-08-29T22:45:32.409Z,17.30
2022-08-29T22:47:59.446Z,52.15
2022-08-29T22:50:26.492Z,38.25
2022-08-29T22:52:58.091Z,31.00
2022-08-29T22:57:51.487Z,25.33
2022-08-29T23:00:22.663Z,26.48
2022-08-29T23:02:50.880Z,35.50
2022-08-29T23:05:20.043Z,25.00
2022-08-29T23:07:47.005Z,30.63
2022-08-29T23:10:15.134Z,27.00
2022-08-29T23:12:42.236Z,32.08
2022-08-29T23:15:13.606Z,32.35
2022-08-29T23:17:41.238Z,49.40
2022-08-29T23:20:11.674Z,29.27
2022-08-29T23:22:42.830Z,33.75
2022-08-29T23:25:12.261Z,30.02
2022-08-29T23:27:40.018Z,44.22
2022-08-29T23:30:12.088Z,41.60
2022-08-29T23:32:39.205Z,31.83
2022-08-29T23:35:07.727Z,35.80
2022-08-29T23:37:34.913Z,31.48
2022-08-29T23:40:02.462Z,34.60
2022-08-29T23:42:29.548Z,26.48
2022-08-29T23:44:57.601Z,36.42
2022-08-29T23:47:24.551Z,40.08
2022-08-29T23:49:51.582Z,34.05
2022-08-29T23:52:18.789Z,34.70
2022-08-29T23:54:45.781Z,34.22
2022-08-29T23:57:12.895Z,40.97
2022-08-29T23:59:58.537Z,29.02
